createdAt,value
2022-12-18T00:02:07.631Z,97400.09
2022-12-18T00:04:34.091Z,97403.38
2022-12-18T00:07:00.647Z,97415.38
2022-12-18T00:09:39.584Z,97412.03
2022-12-18T00:14:42.959Z,97411.03
2022-12-18T00:17:09.491Z,97410.22
2022-12-18T00:19:35.950Z,97410.00
2022-12-18T00:22:02.299Z,97409.91
2022-12-18T00:24:28.950Z,97421.25
2022-12-18T00:26:55.262Z,97424.63
2022-12-18T00:29:21.589Z,97421.25
2022-12-18T00:31:48.047Z,97421.34
2022-12-18T00:34:14.853Z,97426.19
2022-12-18T00:36:42.125Z,97422.63
2022-12-18T00:39:08.646Z,97420.84
2022-12-18T00:41:53.876Z,97411.63
2022-12-18T00:44:20.295Z,97401.75
2022-12-18T00:46:48.236Z,97403.22
2022-12-18T00:49:16.891Z,97410.81
2022-12-18T00:51:43.521Z,97417.84
2022-12-18T00:54:11.777Z,97425.72
2022-12-18T00:56:48.342Z,97434.09
2022-12-18T00:59:15.919Z,97439.81
2022-12-18T01:01:42.428Z,97445.78
2022-12-18T01:04:09.050Z,97441.38
2022-12-18T01:06:35.788Z,97424.06
2022-12-18T01:09:03.569Z,97445.69
2022-12-18T01:11:30.105Z,97442.22
2022-12-18T01:13:56.467Z,97441.91
2022-12-18T01:16:23.658Z,97437.34
2022-12-18T01:18:54.556Z,97443.91
2022-12-18T01:21:22.602Z,97450.63
2022-12-18T01:23:53.025Z,97457.56
2022-12-18T01:26:19.658Z,97460.28
2022-12-18T01:28:46.287Z,97459.25
2022-12-18T01:31:22.148Z,97460.94
2022-12-18T01:33:48.697Z,97464.22
2022-12-18T01:36:23.422Z,97460.00
2022-12-18T01:38:51.033Z,97458.38
2022-12-18T01:41:19.577Z,97458.44
2022-12-18T01:43:53.611Z,97471.06
2022-12-18T01:46:22.119Z,97471.97
2022-12-18T01:48:51.593Z,97474.41
2022-12-18T01:51:18.171Z,97471.06
2022-12-18T01:53:46.878Z,97475.34
2022-12-18T01:56:22.772Z,97477.00
2022-12-18T01:59:02.350Z,97487.16
2022-12-18T02:01:31.027Z,97488.84
2022-12-18T02:04:17.569Z,97486.97
2022-12-18T02:06:43.946Z,97471.53
2022-12-18T02:09:16.188Z,97469.69
2022-12-18T02:11:57.425Z,97478.03
2022-12-18T02:14:30.155Z,97470.72
2022-12-18T02:17:11.455Z,97477.16
2022-12-18T02:19:44.570Z,97473.66
2022-12-18T02:22:42.558Z,97468.22
2022-12-18T02:25:21.028Z,97487.38
2022-12-18T02:27:50.029Z,97479.84
2022-12-18T02:30:16.645Z,97476.34
2022-12-18T02:32:51.130Z,97474.56
2022-12-18T02:35:23.833Z,97479.72
2022-12-18T02:37:51.658Z,97478.75
2022-12-18T02:40:18.924Z,97474.19
2022-12-18T02:42:45.264Z,97476.84
2022-12-18T02:45:11.608Z,97490.84
2022-12-18T02:47:41.444Z,97498.47
2022-12-18T02:50:36.629Z,97494.53
2022-12-18T02:53:20.322Z,97493.75
2022-12-18T02:56:03.910Z,97496.75
2022-12-18T02:59:01.094Z,97495.88
2022-12-18T03:01:44.116Z,97495.41
2022-12-18T03:04:27.537Z,97493.59
2022-12-18T03:07:00.872Z,97499.56
2022-12-18T03:09:32.705Z,97497.25
2022-12-18T03:12:31.049Z,97507.56
2022-12-18T03:15:30.493Z,97502.59
2022-12-18T03:18:10.096Z,97506.63
2022-12-18T03:20:39.350Z,97509.06
2022-12-18T03:23:12.343Z,97514.38
2022-12-18T03:25:43.378Z,97505.00
2022-12-18T03:28:15.008Z,97504.88
2022-12-18T03:30:43.022Z,97502.31
2022-12-18T03:33:35.540Z,97514.22
2022-12-18T03:36:02.211Z,97511.75
2022-12-18T03:38:28.586Z,97510.94
2022-12-18T03:41:04.089Z,97513.66
2022-12-18T03:43:51.617Z,97514.38
2022-12-18T03:46:39.668Z,97525.59
2022-12-18T03:49:20.290Z,97521.91
2022-12-18T03:51:53.722Z,97533.59
2022-12-18T03:54:21.361Z,97529.41
2022-12-18T03:57:01.422Z,97533.00
2022-12-18T03:59:30.109Z,97529.50
2022-12-18T04:01:59.771Z,97533.78
2022-12-18T04:04:28.583Z,97538.13
2022-12-18T04:06:56.261Z,97534.16
2022-12-18T04:09:22.791Z,97530.03
2022-12-18T04:11:49.413Z,97536.06
2022-12-18T04:14:17.970Z,97534.75
2022-12-18T04:16:45.063Z,97535.50
2022-12-18T04:19:11.625Z,97539.66
2022-12-18T04:21:38.053Z,97537.09
2022-12-18T04:24:04.556Z,97548.13
2022-12-18T04:26:31.068Z,97552.25
2022-12-18T04:28:57.533Z,97553.34
2022-12-18T04:31:24.098Z,97561.06
2022-12-18T04:33:50.525Z,97567.75
2022-12-18T04:36:16.922Z,97563.94
2022-12-18T04:38:43.334Z,97565.72
2022-12-18T04:41:09.682Z,97565.59
2022-12-18T04:43:36.233Z,97565.38
2022-12-18T04:46:07.045Z,97561.16
2022-12-18T04:48:34.201Z,97563.59
2022-12-18T04:51:00.568Z,97564.41
2022-12-18T04:53:26.920Z,97562.84
2022-12-18T04:56:10.454Z,97562.06
2022-12-18T04:58:38.070Z,97560.22
2022-12-18T05:01:05.086Z,97554.16
2022-12-18T05:03:32.044Z,97548.81
2022-12-18T05:05:58.452Z,97546.91
2022-12-18T05:08:24.928Z,97544.38
2022-12-18T05:11:01.418Z,97547.84
2022-12-18T05:13:28.666Z,97549.44
2022-12-18T05:15:55.960Z,97550.94
2022-12-18T05:18:23.985Z,97553.56
2022-12-18T05:20:51.697Z,97546.72
2022-12-18T05:23:18.205Z,97555.25
2022-12-18T05:25:51.221Z,97558.06
2022-12-18T05:28:17.569Z,97566.50
2022-12-18T05:30:48.527Z,97572.34
2022-12-18T05:33:14.972Z,97571.66
2022-12-18T05:35:41.324Z,97571.47
2022-12-18T05:38:07.657Z,97574.03
2022-12-18T05:40:33.986Z,97566.31
2022-12-18T05:43:00.317Z,97569.97
2022-12-18T05:45:27.995Z,97573.78
2022-12-18T05:47:54.324Z,97572.84
2022-12-18T05:50:21.301Z,97567.69
2022-12-18T05:52:47.625Z,97574.72
2022-12-18T05:55:13.963Z,97575.38
2022-12-18T05:57:40.293Z,97570.16
2022-12-18T06:00:07.667Z,97573.75
2022-12-18T06:02:34.072Z,97580.41
2022-12-18T06:05:00.525Z,97571.84
2022-12-18T06:07:26.860Z,97573.72
2022-12-18T06:09:53.354Z,97575.25
2022-12-18T06:12:19.693Z,97579.59
2022-12-18T06:14:46.184Z,97575.25
2022-12-18T06:17:12.526Z,97574.34
2022-12-18T06:19:38.846Z,97581.38
2022-12-18T06:22:05.162Z,97589.72
2022-12-18T06:24:31.486Z,97586.16
2022-12-18T06:26:57.833Z,97595.03
2022-12-18T06:29:24.179Z,97592.16
2022-12-18T06:31:50.719Z,97592.16
2022-12-18T06:34:17.121Z,97594.88
2022-12-18T06:36:43.750Z,97589.03
2022-12-18T06:39:10.085Z,97597.44
2022-12-18T06:41:36.486Z,97587.88
2022-12-18T06:44:02.890Z,97595.63
2022-12-18T06:46:29.254Z,97600.13
2022-12-18T06:48:55.782Z,97603.63
2022-12-18T06:51:23.774Z,97608.56
2022-12-18T06:53:50.670Z,97612.94
2022-12-18T06:56:17.400Z,97623.22
2022-12-18T06:58:43.738Z,97626.56
2022-12-18T07:01:11.945Z,97620.78
2022-12-18T07:03:43.165Z,97624.94
2022-12-18T07:06:21.089Z,97637.16
2022-12-18T07:08:48.860Z,97636.31
2022-12-18T07:11:15.824Z,97633.59
2022-12-18T07:13:42.676Z,97634.47
2022-12-18T07:16:20.866Z,97630.97
2022-12-18T07:18:50.497Z,97643.84
2022-12-18T07:21:19.984Z,97647.00
2022-12-18T07:23:48.740Z,97642.72
2022-12-18T07:26:17.148Z,97648.53
2022-12-18T07:28:43.696Z,97645.84
2022-12-18T07:31:14.175Z,97651.63
2022-12-18T07:33:41.858Z,97646.19
2022-12-18T07:36:10.998Z,97644.78
2022-12-18T07:38:37.665Z,97649.19
2022-12-18T07:41:12.304Z,97653.13
2022-12-18T07:43:40.093Z,97657.44
2022-12-18T07:46:07.970Z,97662.53
2022-12-18T07:48:34.441Z,97657.09
2022-12-18T07:51:06.627Z,97660.44
2022-12-18T07:53:34.584Z,97669.72
2022-12-18T07:56:26.401Z,97673.19
2022-12-18T07:58:52.968Z,97672.13
2022-12-18T08:01:19.357Z,97668.91
2022-12-18T08:03:47.745Z,97672.31
2022-12-18T08:06:14.598Z,97666.38
2022-12-18T08:08:42.612Z,97670.66
2022-12-18T08:11:08.982Z,97679.25
2022-12-18T08:13:35.503Z,97683.22
2022-12-18T08:16:04.729Z,97686.75
2022-12-18T08:18:35.147Z,97693.56
2022-12-18T08:21:12.192Z,97693.44
2022-12-18T08:23:43.049Z,97693.44
2022-12-18T08:26:11.609Z,97690.88
2022-12-18T08:28:38.648Z,97696.91
2022-12-18T08:31:05.523Z,97689.16
2022-12-18T08:33:32.551Z,97701.16
2022-12-18T08:35:59.932Z,97701.53
2022-12-18T08:38:26.280Z,97708.19
2022-12-18T08:41:11.821Z,97695.00
2022-12-18T08:43:57.330Z,97695.41
2022-12-18T08:46:26.262Z,97697.16
2022-12-18T08:48:53.973Z,97689.31
2022-12-18T08:51:21.454Z,97693.28
2022-12-18T08:53:48.535Z,97693.31
2022-12-18T08:56:15.946Z,97687.28
2022-12-18T08:58:43.216Z,97683.38
2022-12-18T09:01:12.255Z,97675.63
2022-12-18T09:03:39.812Z,97673.97
2022-12-18T09:06:06.855Z,97675.66
2022-12-18T09:08:37.835Z,97668.69
2022-12-18T09:11:04.669Z,97667.59
2022-12-18T09:13:31.081Z,97673.56
2022-12-18T09:15:57.450Z,97679.09
2022-12-18T09:18:25.112Z,97671.72
2022-12-18T09:20:53.716Z,97661.88
2022-12-18T09:23:21.267Z,97667.81
2022-12-18T09:25:47.974Z,97664.16
2022-12-18T09:28:16.478Z,97662.03
2022-12-18T09:30:46.708Z,97670.47
2022-12-18T09:33:13.162Z,97674.94
2022-12-18T09:35:40.302Z,97670.31
2022-12-18T09:38:08.050Z,97674.53
2022-12-18T09:40:40.846Z,97680.69
2022-12-18T09:43:11.922Z,97681.31
2022-12-18T09:45:53.029Z,97677.59
2022-12-18T09:48:33.255Z,97676.00
2022-12-18T09:51:06.043Z,97681.28
2022-12-18T09:53:38.959Z,97679.38
2022-12-18T09:56:06.220Z,97672.75
2022-12-18T09:58:46.213Z,97677.28
2022-12-18T10:01:21.680Z,97673.53
2022-12-18T10:03:48.525Z,97686.28
2022-12-18T10:06:22.324Z,97680.97
2022-12-18T10:09:10.893Z,97686.41
2022-12-18T10:11:49.381Z,97678.00
2022-12-18T10:14:27.821Z,97678.09
2022-12-18T10:17:22.100Z,97673.31
2022-12-18T10:20:03.057Z,97679.06
2022-12-18T10:22:47.727Z,97681.59
2022-12-18T10:25:23.183Z,97684.25
2022-12-18T10:28:01.118Z,97690.94
2022-12-18T10:30:27.765Z,97685.91
2022-12-18T10:32:55.036Z,97688.44
2022-12-18T10:35:24.671Z,97681.34
2022-12-18T10:38:13.822Z,97683.50
2022-12-18T10:41:10.462Z,97685.97
2022-12-18T10:43:40.526Z,97676.41
2022-12-18T10:46:09.996Z,97670.50
2022-12-18T10:48:48.889Z,97680.34
2022-12-18T10:51:36.731Z,97684.31
2022-12-18T10:54:06.603Z,97689.56
2022-12-18T10:56:36.597Z,97690.41
2022-12-18T10:59:08.884Z,97694.56
2022-12-18T11:01:49.416Z,97694.56
2022-12-18T11:04:31.979Z,97689.91
2022-12-18T11:07:06.839Z,97675.16
2022-12-18T11:09:35.915Z,97673.78
2022-12-18T11:12:24.161Z,97671.94
2022-12-18T11:14:53.076Z,97671.97
2022-12-18T11:17:26.250Z,97667.44
2022-12-18T11:19:55.597Z,97665.00
2022-12-18T11:22:28.897Z,97659.53
2022-12-18T11:25:30.285Z,97650.66
2022-12-18T11:28:08.815Z,97647.06
2022-12-18T11:30:38.347Z,97641.38
2022-12-18T11:33:15.582Z,97630.84
2022-12-18T11:35:54.820Z,97635.25
2022-12-18T11:38:27.151Z,97630.66
2022-12-18T11:41:44.586Z,97636.63
2022-12-18T11:44:14.623Z,97636.56
2022-12-18T11:46:50.251Z,97633.16
2022-12-18T11:49:27.758Z,97631.56
2022-12-18T11:52:12.933Z,97628.91
2022-12-18T11:54:39.258Z,97629.75
2022-12-18T11:57:35.759Z,97637.81
2022-12-18T12:00:13.516Z,97651.66
2022-12-18T12:03:02.187Z,97637.66
2022-12-18T12:05:51.151Z,97646.75
2022-12-18T12:08:48.525Z,97656.44
2022-12-18T12:11:31.898Z,97643.38
2022-12-18T12:14:27.310Z,97636.31
2022-12-18T12:17:19.150Z,97631.97
2022-12-18T12:20:21.160Z,97635.53
2022-12-18T12:22:59.353Z,97617.38
2022-12-18T12:25:45.559Z,97615.81
2022-12-18T12:28:36.744Z,97616.88
2022-12-18T12:31:24.928Z,97621.28
2022-12-18T12:34:10.141Z,97618.28
2022-12-18T12:37:03.355Z,97621.16
2022-12-18T12:39:35.422Z,97620.47
2022-12-18T12:42:23.487Z,97620.97
2022-12-18T12:44:57.097Z,97615.31
2022-12-18T12:47:39.108Z,97616.50
2022-12-18T12:50:16.069Z,97609.75
2022-12-18T12:52:48.126Z,97610.91
2022-12-18T12:55:33.360Z,97593.56
2022-12-18T12:58:16.208Z,97603.75
2022-12-18T13:00:55.503Z,97602.69
2022-12-18T13:03:34.909Z,97602.28
2022-12-18T13:06:10.483Z,97606.34
2022-12-18T13:08:57.589Z,97600.59
2022-12-18T13:12:04.021Z,97605.63
2022-12-18T13:14:36.468Z,97620.81
2022-12-18T13:17:30.219Z,97603.31
2022-12-18T13:20:10.206Z,97603.16
2022-12-18T13:22:42.684Z,97605.19
2022-12-18T13:25:32.942Z,97610.09
2022-12-18T13:28:06.322Z,97607.34
2022-12-18T13:30:33.142Z,97601.50
2022-12-18T13:33:14.816Z,97602.53
2022-12-18T13:35:48.810Z,97606.41
2022-12-18T13:38:38.142Z,97603.84
2022-12-18T13:41:19.688Z,97597.94
2022-12-18T13:43:59.126Z,97594.81
2022-12-18T13:46:46.603Z,97601.31
2022-12-18T13:49:12.969Z,97594.56
2022-12-18T13:51:43.852Z,97600.38
2022-12-18T13:54:35.946Z,97599.38
2022-12-18T13:57:03.901Z,97603.72
2022-12-18T13:59:40.494Z,97599.00
2022-12-18T14:02:16.718Z,97598.94
2022-12-18T14:04:47.295Z,97596.38
2022-12-18T14:07:20.210Z,97595.72
2022-12-18T14:09:52.272Z,97593.09
2022-12-18T14:12:44.156Z,97592.88
2022-12-18T14:15:27.212Z,97594.44
2022-12-18T14:17:58.144Z,97600.91
2022-12-18T14:20:26.095Z,97600.19
2022-12-18T14:22:52.908Z,97603.75
2022-12-18T14:25:22.198Z,97615.25
2022-12-18T14:28:08.652Z,97619.78
2022-12-18T14:30:43.280Z,97617.19
2022-12-18T14:33:17.777Z,97609.44
2022-12-18T14:36:05.937Z,97598.84
2022-12-18T14:38:40.116Z,97600.94
2022-12-18T14:41:12.659Z,97600.63
2022-12-18T14:43:42.144Z,97607.06
2022-12-18T14:46:29.560Z,97602.50
2022-12-18T14:48:57.170Z,97607.00
2022-12-18T14:51:26.822Z,97609.72
2022-12-18T14:54:01.692Z,97603.59
2022-12-18T14:56:30.015Z,97603.09
2022-12-18T14:59:05.641Z,97600.19
2022-12-18T15:01:35.181Z,97593.59
2022-12-18T15:04:03.096Z,97603.66
2022-12-18T15:06:34.181Z,97595.09
2022-12-18T15:09:02.407Z,97589.81
2022-12-18T15:11:32.767Z,97587.09
2022-12-18T15:14:00.830Z,97594.03
2022-12-18T15:16:27.424Z,97588.91
2022-12-18T15:18:54.377Z,97594.25
2022-12-18T15:21:21.839Z,97595.16
2022-12-18T15:23:53.098Z,97603.41
2022-12-18T15:26:21.624Z,97608.09
2022-12-18T15:28:52.158Z,97607.59
2022-12-18T15:31:18.530Z,97609.38
2022-12-18T15:34:01.568Z,97613.09
2022-12-18T15:36:27.892Z,97605.19
2022-12-18T15:39:04.547Z,97602.34
2022-12-18T15:41:34.484Z,97602.50
2022-12-18T15:44:03.639Z,97602.50
2022-12-18T15:46:31.658Z,97601.97
2022-12-18T15:49:02.364Z,97606.34
2022-12-18T15:51:35.627Z,97606.44
2022-12-18T15:54:05.672Z,97609.91
2022-12-18T15:56:51.242Z,97599.59
2022-12-18T15:59:20.222Z,97615.97
2022-12-18T16:01:52.209Z,97617.56
2022-12-18T16:04:21.434Z,97608.38
2022-12-18T16:07:13.900Z,97609.38
2022-12-18T16:09:36.377Z,97601.53
2022-12-18T16:12:02.790Z,97608.56
2022-12-18T16:14:31.258Z,97615.59
2022-12-18T16:17:07.326Z,97612.91
2022-12-18T16:19:33.638Z,97616.19
2022-12-18T16:22:00.368Z,97622.22
2022-12-18T16:24:29.205Z,97618.00
2022-12-18T16:26:57.508Z,97623.03
2022-12-18T16:29:27.719Z,97620.47
2022-12-18T16:31:55.179Z,97625.75
2022-12-18T16:34:26.762Z,97613.91
2022-12-18T16:37:05.595Z,97618.00
2022-12-18T16:39:36.041Z,97611.25
2022-12-18T16:42:05.605Z,97617.63
2022-12-18T16:44:33.206Z,97616.53
2022-12-18T16:47:02.718Z,97611.38
2022-12-18T16:49:29.745Z,97608.59
2022-12-18T16:51:56.191Z,97610.53
2022-12-18T16:54:22.638Z,97599.28
2022-12-18T16:56:51.296Z,97591.53
2022-12-18T16:59:18.046Z,97589.94
2022-12-18T17:01:44.492Z,97592.50
2022-12-18T17:04:11.275Z,97593.41
2022-12-18T17:06:43.160Z,97594.03
2022-12-18T17:09:15.014Z,97597.50
2022-12-18T17:11:41.861Z,97585.94
2022-12-18T17:14:20.014Z,97586.88
2022-12-18T17:16:47.061Z,97591.25
2022-12-18T17:19:17.321Z,97598.28
2022-12-18T17:21:45.446Z,97596.03
2022-12-18T17:24:11.902Z,97592.50
2022-12-18T17:26:38.301Z,97603.66
2022-12-18T17:29:04.859Z,97608.91
2022-12-18T17:31:32.151Z,97603.81
2022-12-18T17:33:58.842Z,97594.34
2022-12-18T17:36:28.595Z,97597.88
2022-12-18T17:38:57.158Z,97588.94
2022-12-18T17:41:24.771Z,97585.53
2022-12-18T17:43:59.160Z,97595.81
2022-12-18T17:46:26.769Z,97593.94
2022-12-18T17:48:55.912Z,97598.38
2022-12-18T17:51:22.294Z,97589.72
2022-12-18T17:53:49.091Z,97589.72
2022-12-18T17:56:17.477Z,97589.56
2022-12-18T17:58:44.674Z,97593.13
2022-12-18T18:01:16.096Z,97593.00
2022-12-18T18:03:43.358Z,97596.88
2022-12-18T18:08:37.700Z,97598.47
2022-12-18T18:11:24.775Z,97600.03
2022-12-18T18:14:04.430Z,97604.59
2022-12-18T18:16:42.057Z,97615.91
2022-12-18T18:19:11.957Z,97619.63
2022-12-18T18:21:40.913Z,97625.91
2022-12-18T18:24:08.748Z,97611.06
2022-12-18T18:26:36.419Z,97623.16
2022-12-18T18:29:05.683Z,97619.84
2022-12-18T18:31:34.643Z,97614.00
2022-12-18T18:34:06.512Z,97618.81
2022-12-18T18:36:34.498Z,97622.22
2022-12-18T18:39:01.376Z,97609.97
2022-12-18T18:41:29.821Z,97604.91
2022-12-18T18:43:57.821Z,97600.91
2022-12-18T18:46:24.977Z,97603.97
2022-12-18T18:48:51.755Z,97607.38
2022-12-18T18:51:21.541Z,97606.56
2022-12-18T18:53:50.769Z,97597.22
2022-12-18T18:59:07.053Z,97583.63
2022-12-18T19:01:33.508Z,97593.88
2022-12-18T19:04:00.829Z,97574.81
2022-12-18T19:06:28.611Z,97587.75
2022-12-18T19:08:56.847Z,97597.38
2022-12-18T19:11:43.594Z,97585.34
2022-12-18T19:14:11.962Z,97582.78
2022-12-18T19:16:38.927Z,97572.69
2022-12-18T19:19:05.619Z,97576.88
2022-12-18T19:21:33.244Z,97599.94
2022-12-18T19:24:01.327Z,97608.09
2022-12-18T19:26:28.847Z,97598.59
2022-12-18T19:29:01.359Z,97597.28
2022-12-18T19:31:33.389Z,97587.13
2022-12-18T19:34:02.527Z,97580.28
2022-12-18T19:36:30.010Z,97574.53
2022-12-18T19:38:59.265Z,97577.81
2022-12-18T19:41:29.020Z,97592.03
2022-12-18T19:43:55.690Z,97586.78
2022-12-18T19:46:23.710Z,97592.19
2022-12-18T19:48:50.824Z,97587.75
2022-12-18T19:51:25.726Z,97589.13
2022-12-18T19:53:58.173Z,97576.50
2022-12-18T19:56:27.891Z,97572.97
2022-12-18T19:58:55.251Z,97566.16
2022-12-18T20:01:23.747Z,97552.97
2022-12-18T20:03:52.322Z,97566.16
2022-12-18T20:06:36.602Z,97559.16
2022-12-18T20:09:05.992Z,97567.97
2022-12-18T20:11:36.386Z,97560.06
2022-12-18T20:14:12.374Z,97566.91
2022-12-18T20:16:39.660Z,97560.25
2022-12-18T20:19:07.671Z,97557.09
2022-12-18T20:21:34.750Z,97566.38
2022-12-18T20:24:01.871Z,97574.28
2022-12-18T20:26:28.624Z,97576.50
2022-12-18T20:28:55.814Z,97573.00
2022-12-18T20:31:22.686Z,97568.28
2022-12-18T20:33:50.991Z,97573.28
2022-12-18T20:36:21.376Z,97574.22
2022-12-18T20:38:51.493Z,97569.75
2022-12-18T20:41:21.873Z,97567.44
2022-12-18T20:43:48.527Z,97568.75
2022-12-18T20:46:16.879Z,97559.94
2022-12-18T20:48:44.620Z,97567.91
2022-12-18T20:51:14.177Z,97565.59
2022-12-18T20:53:42.163Z,97552.94
2022-12-18T20:56:12.472Z,97550.94
2022-12-18T20:58:38.826Z,97551.25
2022-12-18T21:01:16.855Z,97549.00
2022-12-18T21:03:45.809Z,97550.06
2022-12-18T21:06:13.551Z,97551.53
2022-12-18T21:08:40.139Z,97546.97
2022-12-18T21:11:40.114Z,97549.53
2022-12-18T21:14:13.651Z,97545.78
2022-12-18T21:16:40.424Z,97551.00
2022-12-18T21:19:06.962Z,97555.78
2022-12-18T21:21:38.552Z,97570.38
2022-12-18T21:24:06.862Z,97565.88
2022-12-18T21:26:33.877Z,97568.38
2022-12-18T21:29:03.793Z,97566.84
2022-12-18T21:31:33.226Z,97570.34
2022-12-18T21:34:02.459Z,97569.53
2022-12-18T21:36:29.844Z,97564.38
2022-12-18T21:38:57.004Z,97570.59
2022-12-18T21:41:44.013Z,97577.44
2022-12-18T21:44:13.506Z,97556.69
2022-12-18T21:46:43.170Z,97564.44
2022-12-18T21:49:10.519Z,97559.47
2022-12-18T21:51:37.487Z,97563.63
2022-12-18T21:54:04.404Z,97552.59
2022-12-18T21:56:43.154Z,97537.09
2022-12-18T21:59:09.789Z,97549.72
2022-12-18T22:01:37.795Z,97543.03
2022-12-18T22:04:04.576Z,97556.03
2022-12-18T22:06:30.999Z,97549.78
2022-12-18T22:08:57.589Z,97543.03
2022-12-18T22:11:24.143Z,97538.13
2022-12-18T22:13:50.604Z,97530.53
2022-12-18T22:16:17.170Z,97533.19
2022-12-18T22:18:43.708Z,97528.13
2022-12-18T22:21:29.568Z,97534.75
2022-12-18T22:24:02.075Z,97532.34
2022-12-18T22:26:35.070Z,97543.03
2022-12-18T22:29:23.790Z,97533.66
2022-12-18T22:31:50.635Z,97533.09
2022-12-18T22:34:21.914Z,97530.19
2022-12-18T22:36:49.374Z,97544.84
2022-12-18T22:39:21.431Z,97547.31
2022-12-18T22:41:48.644Z,97540.81
2022-12-18T22:44:17.465Z,97534.66
2022-12-18T22:46:50.770Z,97532.09
2022-12-18T22:49:31.718Z,97515.13
2022-12-18T22:51:59.838Z,97515.88
2022-12-18T22:54:26.230Z,97531.28
2022-12-18T22:56:52.750Z,97535.78
2022-12-18T22:59:23.011Z,97544.69
2022-12-18T23:01:51.293Z,97525.78
2022-12-18T23:04:28.363Z,97556.47
2022-12-18T23:07:04.085Z,97552.34
2022-12-18T23:09:30.462Z,97555.84
2022-12-18T23:11:57.046Z,97536.81
2022-12-18T23:14:23.401Z,97534.56
2022-12-18T23:16:50.428Z,97529.97
2022-12-18T23:19:19.553Z,97522.09
2022-12-18T23:21:45.924Z,97525.72
2022-12-18T23:24:12.352Z,97532.88
2022-12-18T23:26:38.994Z,97528.13
2022-12-18T23:29:05.453Z,97538.34
2022-12-18T23:31:35.053Z,97529.69
2022-12-18T23:34:03.158Z,97524.34
2022-12-18T23:36:30.499Z,97527.06
2022-12-18T23:39:01.160Z,97530.22
2022-12-18T23:41:32.625Z,97521.94
2022-12-18T23:44:00.442Z,97526.00
2022-12-18T23:46:29.934Z,97518.97
2022-12-18T23:48:58.916Z,97528.75
2022-12-18T23:51:25.942Z,97517.63
2022-12-18T23:53:54.201Z,97522.31
2022-12-18T23:56:20.667Z,97525.84
2022-12-18T23:58:48.945Z,97521.91
